Time;durP1;ratioP1;P1;durP2;ratioP2;P2;SDS_P1;SDS_P2;PMS_P1;PMS_P2;Temp;Humidity;BMP_temperature;BMP_pressure;BME280_temperature;BME280_humidity;BME280_pressure;Samples;Min_cycle;Max_cycle;Signal;HPM_P1;HPM_P2
2020/12/23 00:02:00;;;;;;;7.03;3.03;;;8.20;99.90;;;;;;4847203;29;20211;-89
2020/12/23 00:04:27;;;;;;;4.57;2.57;;;8.20;99.90;;;;;;4847146;29;20232;-89
2020/12/23 00:06:55;;;;;;;6.77;2.50;;;8.20;99.90;;;;;;4847277;29;20181;-89
2020/12/23 00:09:22;;;;;;;5.97;2.90;;;8.20;99.90;;;;;;4847395;29;20180;-90
2020/12/23 00:11:53;;;;;;;8.80;3.13;;;8.20;99.90;;;;;;4847187;29;20267;-89
2020/12/23 00:14:19;;;;;;;6.00;2.60;;;8.20;99.90;;;;;;4847161;29;20185;-89
2020/12/23 00:16:45;;;;;;;3.97;2.50;;;8.20;99.90;;;;;;4846800;29;20548;-90
2020/12/23 00:19:10;;;;;;;5.63;2.47;;;8.20;99.90;;;;;;4859344;29;20271;-90
2020/12/23 00:21:37;;;;;;;7.57;2.43;;;8.20;99.90;;;;;;4844263;29;20189;-89
2020/12/23 00:24:03;;;;;;;6.50;2.33;;;8.20;99.90;;;;;;4844197;29;20180;-89
2020/12/23 00:26:29;;;;;;;9.57;2.50;;;8.20;99.90;;;;;;4843904;29;20185;-89
2020/12/23 00:28:54;;;;;;;6.30;2.50;;;8.20;99.90;;;;;;4843797;29;20217;-90
2020/12/23 00:31:20;;;;;;;6.83;2.60;;;8.20;99.90;;;;;;4843821;29;20193;-90
2020/12/23 00:33:46;;;;;;;9.57;2.50;;;8.20;99.90;;;;;;4843704;29;20177;-89
2020/12/23 00:36:18;;;;;;;3.57;2.10;;;8.10;99.90;;;;;;4843181;29;20223;-89
2020/12/23 00:38:44;;;;;;;6.40;2.50;;;8.10;99.90;;;;;;4843624;29;20637;-89
2020/12/23 00:41:10;;;;;;;5.63;2.53;;;8.10;99.90;;;;;;4844024;29;20214;-90
2020/12/23 00:43:36;;;;;;;6.57;2.63;;;8.10;99.90;;;;;;4843566;29;20174;-90
2020/12/23 00:46:02;;;;;;;8.43;2.20;;;8.10;99.90;;;;;;4843375;29;20633;-89
2020/12/23 00:48:28;;;;;;;6.33;2.80;;;8.10;99.90;;;;;;4843499;29;20189;-89
2020/12/23 00:50:55;;;;;;;8.87;2.57;;;8.10;99.90;;;;;;4843866;29;20181;-89
2020/12/23 00:53:21;;;;;;;6.73;2.87;;;8.10;99.90;;;;;;4843470;29;20272;-89
2020/12/23 00:55:47;;;;;;;7.63;3.07;;;8.10;99.90;;;;;;4843512;29;20360;-89
2020/12/23 00:58:14;;;;;;;13.97;2.80;;;8.10;99.90;;;;;;4844769;29;20184;-89
2020/12/23 01:00:40;;;;;;;7.10;2.83;;;8.10;99.90;;;;;;4843305;29;20193;-89
2020/12/23 01:03:09;;;;;;;4.20;2.40;;;8.10;99.90;;;;;;4843466;29;20184;-89
2020/12/23 01:05:34;;;;;;;5.70;3.00;;;8.10;99.90;;;;;;4843347;29;20222;-89
2020/12/23 01:08:00;;;;;;;5.07;2.70;;;8.10;99.90;;;;;;4843434;29;20265;-89
2020/12/23 01:10:26;;;;;;;7.83;2.60;;;8.10;99.90;;;;;;4843229;29;20188;-89
2020/12/23 01:12:52;;;;;;;5.67;2.67;;;8.10;99.90;;;;;;4843472;29;20753;-89
2020/12/23 01:15:17;;;;;;;6.43;2.90;;;8.10;99.90;;;;;;4843176;29;20356;-89
2020/12/23 01:17:43;;;;;;;7.83;2.63;;;8.10;99.90;;;;;;4843718;29;20185;-89
2020/12/23 01:20:09;;;;;;;8.40;2.67;;;8.10;99.90;;;;;;4846525;29;20526;-89
2020/12/23 01:22:35;;;;;;;6.57;2.80;;;8.10;99.90;;;;;;4862437;29;20188;-89
2020/12/23 01:25:02;;;;;;;10.03;2.70;;;8.00;99.90;;;;;;4862559;29;20192;-89
2020/12/23 01:27:32;;;;;;;9.40;2.93;;;8.10;99.90;;;;;;4846699;29;20214;-89
2020/12/23 01:29:58;;;;;;;6.13;2.80;;;8.10;99.90;;;;;;4846813;29;20183;-89
2020/12/23 01:32:24;;;;;;;5.80;3.10;;;8.10;99.90;;;;;;4844431;29;20200;-88
2020/12/23 01:34:52;;;;;;;5.77;2.73;;;8.00;99.90;;;;;;4846519;29;20180;-89
2020/12/23 01:37:19;;;;;;;8.00;3.57;;;8.10;99.90;;;;;;4876898;29;20239;-89
2020/12/23 01:39:48;;;;;;;10.60;4.20;;;8.10;99.90;;;;;;4846551;29;20570;-90
2020/12/23 01:42:16;;;;;;;15.23;5.10;;;8.10;99.90;;;;;;4846425;29;20196;-90
2020/12/23 01:44:43;;;;;;;7.60;4.60;;;8.10;99.90;;;;;;4873464;29;20184;-90
2020/12/23 01:47:17;;;;;;;12.27;5.70;;;8.10;99.90;;;;;;4868135;29;20224;-89
2020/12/23 01:49:43;;;;;;;13.77;6.00;;;8.10;99.90;;;;;;4870747;29;20196;-89
2020/12/23 01:52:08;;;;;;;13.03;6.40;;;8.00;99.90;;;;;;4871347;29;20233;-89
2020/12/23 01:54:35;;;;;;;13.07;7.37;;;8.00;99.90;;;;;;4871083;29;20261;-90
2020/12/23 01:57:02;;;;;;;15.17;6.67;;;8.00;99.90;;;;;;4870854;29;20236;-89
2020/12/23 01:59:27;;;;;;;16.23;7.33;;;8.00;99.90;;;;;;4870787;29;20177;-88
2020/12/23 02:02:21;;;;;;;14.23;6.77;;;8.00;99.90;;;;;;4870482;29;20177;-90
2020/12/23 02:04:47;;;;;;;14.87;6.93;;;8.00;99.90;;;;;;4869935;29;20176;-89
2020/12/23 02:07:13;;;;;;;14.07;7.60;;;8.00;99.90;;;;;;4869707;29;20240;-89
2020/12/23 02:09:42;;;;;;;12.80;7.43;;;8.00;99.90;;;;;;4869747;29;20180;-89
2020/12/23 02:12:13;;;;;;;11.87;7.10;;;8.00;99.90;;;;;;4869639;29;20157;-89
2020/12/23 02:14:41;;;;;;;16.43;7.33;;;8.00;99.90;;;;;;4867910;29;20217;-88
2020/12/23 02:17:07;;;;;;;13.70;7.00;;;8.00;99.90;;;;;;4865021;29;20253;-89
2020/12/23 02:19:33;;;;;;;16.20;8.43;;;8.00;99.90;;;;;;4864142;29;20243;-89
2020/12/23 02:22:00;;;;;;;12.33;7.10;;;8.00;99.90;;;;;;4862884;29;20276;-89
2020/12/23 02:24:27;;;;;;;13.00;7.90;;;8.00;99.90;;;;;;4878803;29;20185;-88
2020/12/23 02:26:54;;;;;;;17.87;7.67;;;8.00;99.90;;;;;;4864284;29;20593;-89
2020/12/23 02:29:22;;;;;;;15.13;8.00;;;8.00;99.90;;;;;;4880252;29;20225;-89
2020/12/23 02:31:50;;;;;;;15.37;8.00;;;8.00;99.90;;;;;;4863428;29;20185;-89
2020/12/23 02:34:18;;;;;;;16.63;7.73;;;8.00;99.90;;;;;;4879019;29;20294;-90
2020/12/23 02:36:44;;;;;;;16.67;7.90;;;8.00;99.90;;;;;;4879760;29;20228;-90
2020/12/23 02:39:10;;;;;;;24.77;7.33;;;8.00;99.90;;;;;;4864759;29;20184;-90
2020/12/23 02:41:36;;;;;;;11.63;7.57;;;8.00;99.90;;;;;;4863858;29;20195;-89
2020/12/23 02:44:02;;;;;;;17.47;6.83;;;8.00;99.90;;;;;;4863406;29;20214;-89
2020/12/23 02:46:30;;;;;;;13.23;7.53;;;8.00;99.90;;;;;;4862359;29;20192;-89
2020/12/23 02:48:56;;;;;;;11.73;7.60;;;7.90;99.90;;;;;;4862711;29;20168;-89
2020/12/23 02:51:22;;;;;;;14.23;7.70;;;7.90;99.90;;;;;;4862423;29;20193;-89
2020/12/23 02:53:47;;;;;;;19.47;8.00;;;7.90;99.90;;;;;;4876803;29;20189;-89
2020/12/23 02:56:14;;;;;;;16.43;7.73;;;7.90;99.90;;;;;;4860317;29;20228;-89
2020/12/23 02:58:43;;;;;;;12.80;7.20;;;8.00;99.90;;;;;;4859157;29;20188;-89
2020/12/23 03:01:09;;;;;;;20.37;7.43;;;8.00;99.90;;;;;;4854975;29;20191;-89
2020/12/23 03:03:35;;;;;;;13.63;7.13;;;7.90;99.90;;;;;;4869854;29;20180;-89
2020/12/23 03:06:06;;;;;;;13.70;7.07;;;7.90;99.90;;;;;;4853393;29;20545;-89
2020/12/23 03:08:32;;;;;;;15.57;7.20;;;8.00;99.90;;;;;;4855159;29;20195;-90
2020/12/23 03:10:58;;;;;;;15.53;7.37;;;8.00;99.90;;;;;;4856569;29;20256;-89
2020/12/23 03:13:26;;;;;;;15.60;8.03;;;8.00;99.90;;;;;;4856301;29;20177;-89
2020/12/23 03:15:52;;;;;;;13.63;7.27;;;8.00;99.90;;;;;;4855800;29;20216;-89
2020/12/23 03:18:18;;;;;;;12.07;7.20;;;8.00;99.90;;;;;;4856438;29;20289;-89
2020/12/23 03:20:45;;;;;;;17.53;7.90;;;8.00;99.90;;;;;;4856057;29;20193;-89
2020/12/23 03:23:10;;;;;;;14.73;7.70;;;8.00;99.90;;;;;;4856687;29;20188;-89
2020/12/23 03:25:36;;;;;;;15.93;8.03;;;8.00;99.90;;;;;;4857167;29;20181;-89
2020/12/23 03:28:02;;;;;;;18.87;8.00;;;8.00;99.90;;;;;;4856564;29;20192;-89
2020/12/23 03:30:27;;;;;;;17.50;7.53;;;8.00;99.90;;;;;;4857256;29;20180;-89
2020/12/23 03:32:54;;;;;;;15.33;8.47;;;8.00;99.90;;;;;;4858555;29;20189;-89
2020/12/23 03:35:21;;;;;;;14.83;8.27;;;8.00;99.90;;;;;;4858624;29;20212;-89
2020/12/23 03:37:47;;;;;;;13.83;7.53;;;7.90;99.90;;;;;;4873542;29;20256;-89
2020/12/23 03:40:13;;;;;;;16.50;7.67;;;7.90;99.90;;;;;;4856929;29;20185;-89
2020/12/23 03:42:38;;;;;;;14.90;7.77;;;7.90;99.90;;;;;;4857745;29;20213;-89
2020/12/23 03:45:07;;;;;;;18.27;7.47;;;7.90;99.90;;;;;;4857416;29;20524;-89
2020/12/23 03:47:34;;;;;;;13.10;7.63;;;7.90;99.90;;;;;;4857315;29;20185;-89
2020/12/23 03:50:00;;;;;;;21.27;8.30;;;7.90;99.90;;;;;;4857861;29;20191;-89
2020/12/23 03:52:29;;;;;;;13.90;7.90;;;7.90;99.90;;;;;;4857850;29;20212;-89
2020/12/23 03:54:54;;;;;;;16.40;7.30;;;7.90;99.90;;;;;;4873107;29;20515;-89
2020/12/23 03:57:26;;;;;;;11.80;6.83;;;7.90;99.90;;;;;;4857961;29;20200;-89
2020/12/23 03:59:52;;;;;;;12.40;6.93;;;7.90;99.90;;;;;;4858002;29;20205;-89
2020/12/23 04:02:21;;;;;;;13.87;6.70;;;7.90;99.90;;;;;;4858181;29;20233;-88
2020/12/23 04:04:47;;;;;;;15.47;7.20;;;7.90;99.90;;;;;;4858824;29;20188;-89
2020/12/23 04:07:12;;;;;;;15.43;8.20;;;7.90;99.90;;;;;;4858362;29;20184;-89
2020/12/23 04:09:40;;;;;;;14.10;7.83;;;7.90;99.90;;;;;;4858450;29;20204;-89
2020/12/23 04:12:05;;;;;;;15.50;8.03;;;7.90;99.90;;;;;;4857685;29;20185;-89
2020/12/23 04:14:31;;;;;;;13.30;7.93;;;7.90;99.90;;;;;;4858869;29;20215;-90
2020/12/23 04:16:57;;;;;;;13.33;6.90;;;7.90;99.90;;;;;;4858509;29;20224;-89
2020/12/23 04:19:22;;;;;;;17.60;7.37;;;7.90;99.90;;;;;;4874436;29;20288;-89
2020/12/23 04:21:48;;;;;;;15.17;7.37;;;7.90;99.90;;;;;;4857510;29;20188;-89
2020/12/23 04:24:14;;;;;;;15.37;7.33;;;7.90;99.90;;;;;;4875457;29;20228;-89
2020/12/23 04:26:39;;;;;;;14.23;7.53;;;7.90;99.90;;;;;;4858347;29;20193;-89
2020/12/23 04:29:05;;;;;;;11.90;7.33;;;7.90;99.90;;;;;;4858191;29;20185;-89
2020/12/23 04:31:32;;;;;;;15.73;8.13;;;7.90;99.90;;;;;;4849019;29;20184;-89
2020/12/23 04:33:57;;;;;;;14.60;7.40;;;7.90;99.90;;;;;;4846394;29;20184;-89
2020/12/23 04:36:25;;;;;;;12.83;7.77;;;7.90;99.90;;;;;;4846315;29;20220;-89
2020/12/23 04:38:50;;;;;;;14.97;7.90;;;7.90;99.90;;;;;;4847193;29;20196;-88
2020/12/23 04:41:22;;;;;;;11.00;7.43;;;7.90;99.90;;;;;;4847466;29;20200;-89
2020/12/23 04:43:49;;;;;;;11.90;6.93;;;7.80;99.90;;;;;;4846351;29;20495;-89
2020/12/23 04:46:21;;;;;;;14.90;7.60;;;7.90;99.90;;;;;;4846383;29;20236;-89
2020/12/23 04:48:55;;;;;;;15.90;8.47;;;7.80;99.90;;;;;;4845952;29;20188;-89
2020/12/23 04:51:30;;;;;;;21.60;8.50;;;7.90;99.90;;;;;;4846212;29;20621;-89
2020/12/23 04:53:58;;;;;;;14.87;8.47;;;7.80;99.90;;;;;;4845921;29;20649;-89
2020/12/23 04:56:26;;;;;;;17.00;7.90;;;7.80;99.90;;;;;;4845945;29;20563;-89
2020/12/23 04:58:59;;;;;;;16.50;8.33;;;7.80;99.90;;;;;;4846011;29;20189;-89
2020/12/23 05:01:27;;;;;;;16.33;8.00;;;7.80;99.90;;;;;;4845919;29;20191;-89
2020/12/23 05:03:53;;;;;;;17.60;8.90;;;7.80;99.90;;;;;;4846257;29;20180;-89
2020/12/23 05:06:20;;;;;;;20.50;8.63;;;7.80;99.90;;;;;;4845563;29;20192;-89
2020/12/23 05:08:47;;;;;;;20.03;8.03;;;7.80;99.90;;;;;;4846140;29;20234;-89
2020/12/23 05:11:19;;;;;;;16.20;7.90;;;7.80;99.90;;;;;;4846102;29;20188;-89
2020/12/23 05:13:45;;;;;;;12.83;7.70;;;7.80;99.90;;;;;;4846026;29;20287;-89
2020/12/23 05:16:20;;;;;;;14.77;7.30;;;7.80;99.90;;;;;;4845596;29;20307;-89
2020/12/23 05:18:47;;;;;;;14.50;8.17;;;7.80;99.90;;;;;;4862034;29;20236;-89
2020/12/23 05:21:17;;;;;;;12.70;6.63;;;7.80;99.90;;;;;;4846099;29;20633;-89
2020/12/23 05:23:47;;;;;;;14.43;7.50;;;7.80;99.90;;;;;;4848303;29;20193;-89
2020/12/23 05:26:15;;;;;;;15.23;8.10;;;7.90;99.90;;;;;;4849396;29;20177;-89
2020/12/23 05:28:42;;;;;;;13.10;7.03;;;7.90;99.90;;;;;;4849426;29;20185;-89
2020/12/23 05:31:10;;;;;;;12.93;7.63;;;7.80;99.90;;;;;;4849312;29;20267;-89
2020/12/23 05:33:40;;;;;;;14.03;7.27;;;7.80;99.90;;;;;;4849041;29;20222;-90
2020/12/23 05:36:09;;;;;;;13.43;7.13;;;7.80;99.90;;;;;;4849251;29;20212;-89
2020/12/23 05:38:36;;;;;;;14.90;7.80;;;7.80;99.90;;;;;;4849360;29;20249;-89
2020/12/23 05:41:07;;;;;;;16.77;7.73;;;7.80;99.90;;;;;;4849367;29;20189;-89
2020/12/23 05:43:33;;;;;;;12.17;6.83;;;7.80;99.90;;;;;;4849377;29;20193;-89
2020/12/23 05:46:01;;;;;;;16.77;7.47;;;7.90;99.90;;;;;;4848982;29;20319;-89
2020/12/23 05:48:28;;;;;;;10.60;6.50;;;7.90;99.90;;;;;;4849134;29;20225;-89
2020/12/23 05:50:54;;;;;;;13.90;7.57;;;7.80;99.90;;;;;;4849055;29;20234;-89
2020/12/23 05:53:20;;;;;;;14.27;7.93;;;7.90;99.90;;;;;;4848948;29;20625;-89
2020/12/23 05:55:53;;;;;;;15.90;8.17;;;7.80;99.90;;;;;;4848946;29;20216;-89
2020/12/23 05:58:28;;;;;;;17.60;8.10;;;7.80;99.90;;;;;;4848847;29;20188;-89
2020/12/23 06:00:56;;;;;;;15.37;8.30;;;7.80;99.90;;;;;;4848738;29;20192;-87
2020/12/23 06:03:42;;;;;;;16.77;7.93;;;7.80;99.90;;;;;;4848198;29;20196;-88
2020/12/23 06:06:12;;;;;;;13.87;7.70;;;7.80;99.90;;;;;;4848603;29;20216;-89
2020/12/23 06:08:40;;;;;;;14.10;8.17;;;7.70;99.90;;;;;;4848621;29;20208;-89
2020/12/23 06:11:32;;;;;;;14.37;8.50;;;7.80;99.90;;;;;;4849445;29;20204;-88
2020/12/23 06:14:16;;;;;;;17.23;8.97;;;7.80;99.90;;;;;;4848573;29;20568;-88
2020/12/23 06:16:44;;;;;;;13.30;8.20;;;7.80;99.90;;;;;;4848781;29;20308;-88
2020/12/23 06:19:22;;;;;;;17.20;7.77;;;7.80;99.90;;;;;;4864782;29;20683;-89
2020/12/23 06:21:55;;;;;;;17.20;8.03;;;7.80;99.90;;;;;;4848406;29;20215;-88
2020/12/23 06:24:23;;;;;;;14.37;7.70;;;7.70;99.90;;;;;;4848571;29;20177;-88
2020/12/23 06:26:56;;;;;;;18.83;7.70;;;7.80;99.90;;;;;;4848862;29;20197;-89
2020/12/23 06:29:24;;;;;;;17.40;8.17;;;7.70;99.90;;;;;;4864965;29;20184;-89
2020/12/23 06:31:59;;;;;;;14.50;7.20;;;7.80;99.90;;;;;;4864718;29;20195;-89
2020/12/23 06:34:27;;;;;;;13.43;7.40;;;7.80;99.90;;;;;;4862765;29;20640;-89
2020/12/23 06:36:54;;;;;;;19.27;8.20;;;7.80;99.90;;;;;;4866158;29;20208;-89
2020/12/23 06:39:30;;;;;;;14.90;8.17;;;7.80;99.90;;;;;;4848294;29;20185;-89
2020/12/23 06:42:19;;;;;;;15.43;7.03;;;7.80;99.90;;;;;;4848345;29;20651;-89
2020/12/23 06:44:49;;;;;;;11.97;7.17;;;7.80;99.90;;;;;;4848176;29;20184;-89
2020/12/23 06:47:30;;;;;;;14.83;8.07;;;7.80;99.90;;;;;;4848463;29;20616;-89
2020/12/23 06:50:05;;;;;;;13.90;8.10;;;7.80;99.90;;;;;;4848242;29;20616;-89
2020/12/23 06:52:52;;;;;;;16.17;8.53;;;7.80;99.90;;;;;;4848077;29;20485;-89
2020/12/23 06:55:17;;;;;;;13.97;8.00;;;7.80;99.90;;;;;;4862397;29;20204;-89
2020/12/23 06:57:44;;;;;;;15.50;9.13;;;7.90;99.90;;;;;;4856428;29;20177;-89
2020/12/23 07:00:33;;;;;;;15.67;8.87;;;7.80;99.90;;;;;;4885646;29;20188;-89
2020/12/23 07:03:04;;;;;;;15.60;7.97;;;7.90;99.90;;;;;;4885188;29;20222;-89
2020/12/23 07:05:47;;;;;;;16.60;9.03;;;7.90;99.90;;;;;;4886012;29;20176;-89
2020/12/23 07:08:20;;;;;;;21.27;9.13;;;7.90;99.90;;;;;;4869710;29;20192;-90
2020/12/23 07:10:50;;;;;;;21.93;8.67;;;7.90;99.90;;;;;;4877541;29;20199;-89
2020/12/23 07:13:26;;;;;;;15.70;8.43;;;7.90;99.90;;;;;;4884523;29;20169;-89
2020/12/23 07:15:54;;;;;;;15.80;7.80;;;7.90;99.90;;;;;;4884004;29;20240;-89
2020/12/23 07:18:29;;;;;;;14.50;7.20;;;7.90;99.90;;;;;;4868898;29;20220;-89
2020/12/23 07:20:59;;;;;;;14.73;8.10;;;7.90;99.90;;;;;;4869316;29;20228;-89
2020/12/23 07:23:31;;;;;;;18.87;8.73;;;7.90;99.90;;;;;;4870322;29;20161;-88
2020/12/23 07:25:59;;;;;;;17.87;8.60;;;7.90;99.90;;;;;;4886924;23;20248;-91
2020/12/23 07:28:34;;;;;;;20.23;9.00;;;7.90;99.90;;;;;;4864384;29;20207;-92
2020/12/23 07:31:01;;;;;;;14.93;8.60;;;7.90;99.90;;;;;;4857791;29;20704;-91
2020/12/23 07:33:28;;;;;;;18.57;9.50;;;7.90;99.90;;;;;;4845519;29;20170;-91
2020/12/23 07:35:59;;;;;;;19.97;9.83;;;7.90;99.90;;;;;;4845795;29;20213;-91
2020/12/23 07:38:33;;;;;;;18.83;9.03;;;7.90;99.90;;;;;;4845270;29;20631;-91
2020/12/23 07:41:00;;;;;;;19.80;10.13;;;7.90;99.90;;;;;;4845028;29;20201;-91
2020/12/23 07:43:27;;;;;;;18.03;9.20;;;7.90;99.90;;;;;;4844488;29;20671;-92
2020/12/23 07:45:53;;;;;;;28.13;10.47;;;7.90;99.90;;;;;;4843454;29;20181;-92
2020/12/23 07:48:21;;;;;;;26.77;10.83;;;7.90;99.90;;;;;;4845082;29;20173;-91
2020/12/23 07:50:52;;;;;;;22.73;10.60;;;7.90;99.90;;;;;;4845095;29;20201;-92
2020/12/23 07:53:20;;;;;;;24.73;10.77;;;7.90;99.90;;;;;;4844769;29;20729;-90
2020/12/23 07:56:00;;;;;;;19.37;10.47;;;7.90;99.90;;;;;;4844544;29;20680;-91
2020/12/23 07:58:28;;;;;;;25.07;11.93;;;8.00;99.90;;;;;;4844477;29;20221;-91
2020/12/23 08:00:53;;;;;;;23.20;10.63;;;8.00;99.90;;;;;;4844623;29;20239;-91
2020/12/23 08:03:27;;;;;;;25.27;10.37;;;8.00;99.90;;;;;;4844701;29;20173;-90
2020/12/23 08:06:10;;;;;;;23.67;9.87;;;8.00;99.90;;;;;;4844069;29;20225;-90
2020/12/23 08:08:37;;;;;;;25.50;10.90;;;8.00;99.90;;;;;;4843922;29;20553;-91
2020/12/23 08:11:11;;;;;;;23.33;11.10;;;8.00;99.90;;;;;;4843493;29;20294;-91
2020/12/23 08:13:37;;;;;;;37.90;11.87;;;8.00;99.90;;;;;;4843859;29;20625;-92
2020/12/23 08:16:04;;;;;;;26.07;11.33;;;8.00;99.90;;;;;;4843776;29;20221;-91
2020/12/23 08:18:34;;;;;;;24.30;10.53;;;8.00;99.90;;;;;;4844234;29;20166;-92
2020/12/23 08:21:15;;;;;;;24.33;11.33;;;8.00;99.90;;;;;;4843933;29;20262;-91
2020/12/23 08:23:47;;;;;;;23.90;10.57;;;8.00;99.90;;;;;;4843958;29;20535;-91
2020/12/23 08:26:14;;;;;;;23.70;11.10;;;8.00;99.90;;;;;;4843643;29;20252;-92
2020/12/23 08:28:41;;;;;;;27.37;11.03;;;8.00;99.90;;;;;;4844312;29;20181;-90
2020/12/23 08:31:18;;;;;;;23.83;11.43;;;8.00;99.90;;;;;;4843672;29;20212;-91
2020/12/23 08:33:45;;;;;;;23.37;11.87;;;8.00;99.90;;;;;;4843892;29;20189;-91
2020/12/23 08:36:11;;;;;;;26.83;12.53;;;8.00;99.90;;;;;;4843905;29;20209;-92
2020/12/23 08:38:40;;;;;;;25.20;12.07;;;8.00;99.90;;;;;;4844825;29;20173;-90
2020/12/23 08:41:12;;;;;;;23.57;11.93;;;8.00;99.90;;;;;;4844026;29;20684;-90
2020/12/23 08:43:44;;;;;;;30.80;12.60;;;8.00;99.90;;;;;;4843698;29;20260;-90
2020/12/23 08:46:10;;;;;;;29.20;12.70;;;8.10;99.90;;;;;;4844238;29;20188;-90
2020/12/23 08:48:46;;;;;;;26.63;13.77;;;8.00;99.90;;;;;;4843355;29;20185;-91
2020/12/23 08:51:18;;;;;;;29.07;13.10;;;8.00;99.90;;;;;;4843285;29;20204;-90
2020/12/23 08:53:45;;;;;;;29.70;13.43;;;8.10;99.90;;;;;;4843110;29;20181;-90
2020/12/23 08:56:21;;;;;;;36.53;13.43;;;8.10;99.90;;;;;;4843518;29;20209;-90
2020/12/23 08:58:49;;;;;;;31.37;14.10;;;8.10;99.90;;;;;;4845787;29;20649;-91
2020/12/23 09:01:24;;;;;;;32.57;14.67;;;8.10;99.90;;;;;;4847132;29;20201;-91
2020/12/23 09:03:59;;;;;;;35.00;14.53;;;8.10;99.90;;;;;;4846770;29;20230;-91
2020/12/23 09:06:25;;;;;;;29.30;14.03;;;8.10;99.90;;;;;;4862640;29;20181;-91
2020/12/23 09:08:51;;;;;;;35.70;14.90;;;8.20;99.90;;;;;;4846961;29;20214;-92
2020/12/23 09:11:17;;;;;;;32.73;14.90;;;8.20;99.90;;;;;;4847161;29;20213;-91
2020/12/23 09:13:42;;;;;;;38.53;15.87;;;8.20;99.90;;;;;;4847436;29;20257;-90
2020/12/23 09:16:15;;;;;;;35.77;15.67;;;8.20;99.90;;;;;;4846847;29;20685;-91
2020/12/23 09:18:49;;;;;;;36.83;16.30;;;8.20;99.90;;;;;;4846475;29;20200;-91
2020/12/23 09:21:19;;;;;;;35.87;14.97;;;8.20;99.90;;;;;;4846599;29;20224;-91
2020/12/23 09:23:45;;;;;;;33.53;15.00;;;8.20;99.90;;;;;;4846692;29;20178;-91
2020/12/23 09:26:17;;;;;;;36.17;15.63;;;8.20;99.90;;;;;;4846785;29;20233;-92
2020/12/23 09:28:43;;;;;;;34.47;15.47;;;8.20;99.90;;;;;;4846951;29;20193;-90
2020/12/23 09:31:08;;;;;;;38.17;15.80;;;8.30;99.90;;;;;;4846337;29;20677;-91
2020/12/23 09:33:42;;;;;;;34.27;14.90;;;8.30;99.90;;;;;;4846214;29;20185;-91
2020/12/23 09:36:08;;;;;;;33.43;15.37;;;8.30;99.90;;;;;;4846315;29;20213;-92
2020/12/23 09:38:35;;;;;;;36.10;15.57;;;8.30;99.90;;;;;;4847369;29;20176;-90
2020/12/23 09:41:06;;;;;;;37.33;15.80;;;8.30;99.90;;;;;;4846875;29;20253;-91
2020/12/23 09:43:36;;;;;;;43.70;16.33;;;8.30;99.90;;;;;;4846739;29;20265;-90
2020/12/23 09:46:05;;;;;;;37.70;17.13;;;8.30;99.90;;;;;;4846226;29;20547;-91
2020/12/23 09:48:32;;;;;;;35.53;15.93;;;8.30;99.90;;;;;;4846124;29;20184;-90
2020/12/23 09:50:58;;;;;;;39.00;16.60;;;8.30;99.90;;;;;;4846453;29;20258;-92
2020/12/23 09:53:27;;;;;;;41.33;17.30;;;8.40;99.90;;;;;;4846279;29;20177;-93
2020/12/23 09:55:54;;;;;;;38.90;16.23;;;8.40;99.90;;;;;;4846265;29;20201;-91
2020/12/23 09:58:20;;;;;;;39.50;16.70;;;8.40;99.90;;;;;;4845776;29;20200;-91
2020/12/23 10:00:47;;;;;;;41.83;16.43;;;8.40;99.90;;;;;;4846038;29;20209;-91
2020/12/23 10:03:14;;;;;;;37.77;17.00;;;8.40;99.90;;;;;;4846395;29;20169;-91
2020/12/23 10:05:40;;;;;;;43.27;17.13;;;8.40;99.90;;;;;;4845910;29;20544;-91
2020/12/23 10:08:06;;;;;;;40.10;16.43;;;8.40;99.90;;;;;;4846041;29;20178;-91
2020/12/23 10:10:32;;;;;;;39.47;17.47;;;8.40;99.90;;;;;;4844757;29;20649;-91
2020/12/23 10:12:58;;;;;;;44.53;17.97;;;8.40;99.90;;;;;;4845600;29;20261;-91
2020/12/23 10:15:24;;;;;;;47.20;18.63;;;8.40;99.90;;;;;;4846135;29;20174;-91
2020/12/23 10:17:51;;;;;;;44.67;18.10;;;8.50;99.90;;;;;;4846043;29;20170;-90
2020/12/23 10:20:17;;;;;;;46.60;19.47;;;8.50;99.90;;;;;;4845785;29;20177;-90
2020/12/23 10:22:43;;;;;;;44.60;18.60;;;8.50;99.90;;;;;;4845876;29;20580;-91
2020/12/23 10:25:10;;;;;;;45.60;20.70;;;8.50;99.90;;;;;;4846630;29;20697;-89
2020/12/23 10:27:36;;;;;;;50.60;20.23;;;8.50;99.90;;;;;;4846187;29;20199;-91
2020/12/23 10:30:05;;;;;;;48.77;21.10;;;8.50;99.90;;;;;;4846628;29;20269;-90
2020/12/23 10:32:31;;;;;;;48.93;20.13;;;8.50;99.90;;;;;;4847035;29;20292;-89
2020/12/23 10:34:57;;;;;;;50.43;20.83;;;8.50;99.90;;;;;;4846129;29;20181;-90
2020/12/23 10:37:25;;;;;;;49.13;21.03;;;8.50;99.90;;;;;;4846357;29;20209;-91
2020/12/23 10:39:51;;;;;;;52.20;20.13;;;8.50;99.90;;;;;;4846790;29;20185;-91
2020/12/23 10:42:17;;;;;;;48.27;20.43;;;8.60;99.90;;;;;;4845811;29;20212;-92
2020/12/23 10:44:43;;;;;;;45.63;19.30;;;8.60;99.90;;;;;;4845836;29;20173;-91
2020/12/23 10:47:09;;;;;;;46.87;20.27;;;8.60;99.90;;;;;;4846230;29;20268;-90
2020/12/23 10:49:35;;;;;;;46.17;18.10;;;8.60;99.90;;;;;;4846874;29;20177;-91
2020/12/23 10:52:02;;;;;;;41.40;17.83;;;8.60;99.90;;;;;;4846487;29;20205;-90
2020/12/23 10:54:29;;;;;;;39.80;18.03;;;8.70;99.90;;;;;;4846016;29;20188;-91
2020/12/23 10:56:56;;;;;;;38.80;17.67;;;8.70;99.90;;;;;;4845949;29;20201;-92
2020/12/23 10:59:23;;;;;;;38.17;17.40;;;8.70;99.90;;;;;;4846174;29;20180;-90
2020/12/23 11:01:56;;;;;;;38.83;17.47;;;8.70;99.90;;;;;;4845975;29;20217;-91
2020/12/23 11:04:23;;;;;;;36.93;17.00;;;8.70;99.90;;;;;;4845769;29;20173;-91
2020/12/23 11:06:50;;;;;;;47.07;18.07;;;8.70;99.90;;;;;;4845686;29;20325;-90
2020/12/23 11:09:18;;;;;;;40.67;17.10;;;8.80;99.90;;;;;;4846273;29;20260;-90
2020/12/23 11:11:51;;;;;;;40.70;17.20;;;8.80;99.90;;;;;;4845808;29;20209;-90
2020/12/23 11:14:17;;;;;;;45.33;19.07;;;8.80;99.90;;;;;;4845548;29;20208;-92
2020/12/23 11:16:49;;;;;;;45.57;18.07;;;8.80;99.90;;;;;;4845361;29;20212;-91
2020/12/23 11:19:15;;;;;;;42.30;18.33;;;8.80;99.90;;;;;;4845570;29;20173;-91
2020/12/23 11:21:41;;;;;;;40.43;18.23;;;8.80;99.90;;;;;;4844901;29;20563;-90
2020/12/23 11:24:10;;;;;;;38.20;17.40;;;8.90;99.90;;;;;;4830675;29;20236;-91
2020/12/23 11:26:35;;;;;;;37.37;17.63;;;8.80;99.90;;;;;;4860210;29;20228;-91
2020/12/23 11:29:02;;;;;;;36.70;17.13;;;8.90;99.90;;;;;;4845296;29;20242;-92
2020/12/23 11:31:28;;;;;;;39.87;18.43;;;8.90;99.90;;;;;;4845003;29;20209;-91
2020/12/23 11:33:54;;;;;;;36.73;17.53;;;8.90;99.90;;;;;;4844699;29;20181;-92
2020/12/23 11:36:20;;;;;;;40.03;17.33;;;8.90;99.90;;;;;;4845036;29;20213;-91
2020/12/23 11:38:45;;;;;;;39.43;18.07;;;8.90;99.90;;;;;;4844476;29;20264;-91
2020/12/23 11:41:12;;;;;;;37.10;17.57;;;8.90;99.90;;;;;;4845152;29;20299;-90
2020/12/23 11:43:38;;;;;;;36.83;17.10;;;8.90;99.90;;;;;;4844060;29;20181;-91
2020/12/23 11:46:04;;;;;;;39.93;17.23;;;8.90;99.90;;;;;;4844517;29;20177;-90
2020/12/23 11:48:30;;;;;;;41.07;17.40;;;8.90;99.90;;;;;;4844852;29;20188;-90
2020/12/23 11:50:57;;;;;;;37.13;17.73;;;9.00;99.90;;;;;;4845151;29;20216;-91
2020/12/23 11:53:23;;;;;;;41.47;17.40;;;9.00;99.90;;;;;;4845240;29;20209;-91
2020/12/23 11:55:50;;;;;;;43.00;18.40;;;9.00;99.90;;;;;;4844105;29;20290;-91
2020/12/23 11:58:16;;;;;;;35.87;17.50;;;9.00;99.90;;;;;;4844988;29;20178;-92
2020/12/23 12:00:41;;;;;;;38.40;17.00;;;9.00;99.90;;;;;;4843907;29;20254;-91
2020/12/23 12:03:07;;;;;;;38.90;18.00;;;9.00;99.90;;;;;;4844200;29;20174;-91
2020/12/23 12:05:33;;;;;;;36.00;18.07;;;9.10;99.90;;;;;;4844383;29;20622;-90
2020/12/23 12:08:03;;;;;;;36.30;17.57;;;9.20;99.90;;;;;;4844772;29;20205;-90
2020/12/23 12:10:28;;;;;;;38.37;18.27;;;9.20;99.90;;;;;;4844290;29;20177;-91
2020/12/23 12:12:55;;;;;;;37.70;17.53;;;9.20;99.90;;;;;;4845018;29;20185;-91
2020/12/23 12:15:20;;;;;;;40.73;18.77;;;9.20;99.90;;;;;;4843655;29;20223;-91
2020/12/23 12:17:46;;;;;;;36.43;19.00;;;9.30;99.90;;;;;;4844196;29;20204;-91
2020/12/23 12:20:12;;;;;;;40.93;19.27;;;9.30;99.90;;;;;;4843659;29;20260;-91
2020/12/23 12:22:38;;;;;;;36.80;19.30;;;9.30;99.90;;;;;;4844067;29;20545;-91
2020/12/23 12:25:03;;;;;;;39.73;19.63;;;9.30;99.90;;;;;;4844002;29;20228;-91
2020/12/23 12:27:30;;;;;;;39.27;19.93;;;9.30;99.90;;;;;;4844032;29;20616;-92
2020/12/23 12:29:56;;;;;;;43.10;21.13;;;9.40;99.90;;;;;;4844619;29;20204;-92
2020/12/23 12:32:22;;;;;;;42.00;20.43;;;9.40;99.90;;;;;;4843365;29;20212;-91
2020/12/23 12:34:47;;;;;;;39.43;20.97;;;9.40;99.90;;;;;;4844208;29;20220;-91
2020/12/23 12:37:13;;;;;;;41.53;21.10;;;9.40;99.90;;;;;;4843677;29;20221;-91
2020/12/23 12:39:39;;;;;;;43.10;21.70;;;9.40;99.90;;;;;;4843988;29;20177;-91
2020/12/23 12:42:07;;;;;;;44.27;20.57;;;9.40;99.90;;;;;;4843563;29;20209;-91
2020/12/23 12:44:32;;;;;;;45.13;21.40;;;9.40;99.90;;;;;;4843750;29;20204;-90
2020/12/23 12:46:58;;;;;;;49.07;22.20;;;9.40;99.90;;;;;;4843954;29;20650;-91
2020/12/23 12:49:25;;;;;;;51.40;23.03;;;9.40;99.90;;;;;;4843743;29;20234;-91